Bridgewater, New Hampshire
Current Conditions -  °F | °C
As of 6:55 PM on Friday 19 Dec 2014 (Local Time) from K1P1 Reporting Station
Clear Clear  
Wind Chill: 14°   Ceiling: Unl
Heat Index: 26°   Visibility: 10mi
Dew Point: 23°   Wind: 14mph
Humidity: 89%   Direction: 280°W
Pressure: 30.06"   Gusts: 25mph
Location:  43.8032°N, 71.7266°W
Report Text: K1P1 192355Z AUTO 28012G22KT 10SM CLR M03/M05 A3006 RMK AO2 T10351050 11015 21035
Loading
Personal Weather Stations






























Interactive Weather Map New forecast layout! Learn more

10-Day Weather Forecast

Advertisements
Track Severe Weather on mobile